CheckWX is a tool to help pilots better visualize weather data.  It is not intended as a substitute for an official pre-flight weather briefing.

13:15:05 UTC

DNMN TAF
Minna Airport
Minna, Nigeria
TAF DNMN 121700Z 1218/1324 32007KT CAVOK PROB30 TEMPO 1305/1309 5000 HZ

Dec-12@
18:00 UTC

Dec-12 @ 18:00 UTC

Dec-14@
00:00 UTC

Dec-14 @ 00:00 UTC

TAF DNMN 121700Z 1218/1324 32007KT CAVOK
Wind
  • 320° at 7 KTS
Conditions
No significant weather
Cloud Levels
  • No significant clouds

Dec-13@
05:00 UTC

Dec-13 @ 05:00 UTC

Dec-13@
09:00 UTC

Dec-13 @ 09:00 UTC

PROB30 TEMPO 1305/1309 5000 HZ

Expired

Conditions
Haze